Time;durP1;ratioP1;P1;durP2;ratioP2;P2;SDS_P1;SDS_P2;PMS_P1;PMS_P2;Temp;Humidity;BMP_temperature;BMP_pressure;BME280_temperature;BME280_humidity;BME280_pressure;Samples;Min_cycle;Max_cycle;Signal;HPM_P1;HPM_P2
2024/03/30 00:01:30;;;;;;;1.77;0.70;;;;;;;12.26;100.00;99586.13;5269658;28;20024;-73
2024/03/30 00:04:00;;;;;;;2.05;0.85;;;;;;;12.25;100.00;99582.63;5277509;28;20039;-73
2024/03/30 00:06:31;;;;;;;1.80;0.80;;;;;;;12.25;100.00;99581.75;5263303;28;20501;-74
2024/03/30 00:09:03;;;;;;;1.08;0.70;;;;;;;12.21;100.00;99585.94;5276299;28;20025;-73
2024/03/30 00:11:34;;;;;;;1.08;0.77;;;;;;;12.13;100.00;99592.31;5269291;28;20103;-74
2024/03/30 00:14:04;;;;;;;1.25;0.50;;;;;;;12.09;100.00;99583.84;5275442;28;20098;-73
2024/03/30 00:16:36;;;;;;;1.88;0.65;;;;;;;12.04;100.00;99574.75;5274327;28;20016;-73
2024/03/30 00:19:08;;;;;;;0.90;0.60;;;;;;;12.03;100.00;99571.22;5282041;28;20016;-73
2024/03/30 00:21:39;;;;;;;3.75;0.82;;;;;;;12.03;100.00;99570.41;5271491;28;20040;-74
2024/03/30 00:24:09;;;;;;;1.67;0.85;;;;;;;12.00;100.00;99582.41;5272458;28;20028;-74
2024/03/30 00:26:40;;;;;;;2.42;0.80;;;;;;;11.99;100.00;99572.66;5270977;28;20028;-74
2024/03/30 00:29:10;;;;;;;3.90;0.80;;;;;;;11.97;100.00;99564.00;5273937;28;20020;-73
2024/03/30 00:31:41;;;;;;;2.20;0.70;;;;;;;11.97;100.00;99572.06;5276125;28;20405;-73
2024/03/30 00:34:11;;;;;;;1.52;0.90;;;;;;;11.97;100.00;99561.31;5271166;28;20028;-73
2024/03/30 00:36:42;;;;;;;0.88;0.60;;;;;;;11.98;100.00;99565.66;5272799;28;20028;-73
2024/03/30 00:39:12;;;;;;;0.80;0.60;;;;;;;11.99;100.00;99561.09;5274334;28;20039;-74
2024/03/30 00:41:43;;;;;;;1.40;0.70;;;;;;;11.97;100.00;99564.00;5274936;28;20017;-73
2024/03/30 00:44:13;;;;;;;0.95;0.70;;;;;;;11.98;100.00;99562.13;5271310;28;20027;-73
2024/03/30 00:46:44;;;;;;;0.73;0.43;;;;;;;11.96;100.00;99556.16;5272773;28;20484;-73
2024/03/30 00:49:14;;;;;;;1.33;0.50;;;;;;;11.95;100.00;99554.47;5275379;28;20032;-73
2024/03/30 00:51:45;;;;;;;1.70;0.70;;;;;;;11.97;100.00;99555.94;5272137;28;20030;-73
2024/03/30 00:54:15;;;;;;;1.33;0.68;;;;;;;11.97;100.00;99555.13;5274576;28;20027;-74
2024/03/30 00:56:46;;;;;;;1.00;0.60;;;;;;;11.96;100.00;99556.97;5275625;28;20024;-73
2024/03/30 00:59:16;;;;;;;0.98;0.70;;;;;;;11.88;100.00;99565.22;5278738;28;20023;-73
2024/03/30 01:01:47;;;;;;;1.17;0.80;;;;;;;11.85;100.00;99558.41;5274279;28;20027;-73
2024/03/30 01:04:18;;;;;;;1.75;0.82;;;;;;;11.81;100.00;99567.88;5280750;28;20034;-73
2024/03/30 01:06:48;;;;;;;1.42;0.85;;;;;;;11.80;100.00;99563.56;5275653;28;20165;-74
2024/03/30 01:09:19;;;;;;;1.42;0.93;;;;;;;11.79;100.00;99553.00;5274981;28;20022;-74
2024/03/30 01:11:50;;;;;;;3.40;0.90;;;;;;;11.83;100.00;99555.09;5275709;28;20050;-74
2024/03/30 01:14:22;;;;;;;2.40;0.98;;;;;;;11.81;100.00;99540.19;5274999;28;20137;-74
2024/03/30 01:16:53;;;;;;;2.60;1.10;;;;;;;11.81;100.00;99549.09;5274351;28;20035;-74
2024/03/30 01:19:24;;;;;;;1.85;0.93;;;;;;;11.80;100.00;99568.94;5273693;28;20394;-74
2024/03/30 01:21:55;;;;;;;1.33;0.80;;;;;;;11.78;100.00;99581.72;5272031;28;20031;-74
2024/03/30 01:24:25;;;;;;;1.35;0.85;;;;;;;11.80;100.00;99598.50;5271347;28;20209;-74
2024/03/30 01:26:57;;;;;;;2.15;0.77;;;;;;;11.81;100.00;99592.06;5272149;28;20493;-74
2024/03/30 01:29:30;;;;;;;1.50;0.95;;;;;;;11.81;100.00;99588.56;5273305;27;20098;-74
2024/03/30 01:32:01;;;;;;;4.45;1.02;;;;;;;11.80;100.00;99579.69;5277876;28;20032;-74
2024/03/30 01:34:32;;;;;;;1.67;0.85;;;;;;;11.81;100.00;99581.31;5269934;28;20396;-74
2024/03/30 01:37:02;;;;;;;2.80;0.82;;;;;;;11.85;100.00;99573.72;5278882;28;20029;-74
2024/03/30 01:39:33;;;;;;;2.15;0.75;;;;;;;11.88;100.00;99567.91;5275743;28;20024;-74
2024/03/30 01:42:04;;;;;;;2.10;1.23;;;;;;;11.88;100.00;99566.06;5275846;28;20073;-74
2024/03/30 01:44:35;;;;;;;2.72;1.27;;;;;;;11.88;100.00;99566.06;5275270;28;20028;-74
2024/03/30 01:47:06;;;;;;;2.50;1.02;;;;;;;11.90;100.00;99557.81;5277491;28;20034;-74
2024/03/30 01:49:36;;;;;;;3.28;0.85;;;;;;;11.87;100.00;99563.59;5275732;28;20569;-74
2024/03/30 01:52:07;;;;;;;3.20;0.80;;;;;;;11.88;100.00;99559.84;5274177;28;20016;-74
2024/03/30 01:54:38;;;;;;;2.53;1.05;;;;;;;11.85;100.00;99560.28;5269167;28;20030;-74
2024/03/30 01:57:08;;;;;;;1.27;0.70;;;;;;;11.73;100.00;99546.59;5276577;28;20563;-74
2024/03/30 01:59:40;;;;;;;1.52;1.20;;;;;;;11.79;100.00;99547.63;5266772;28;20102;-74
2024/03/30 02:02:11;;;;;;;3.33;0.98;;;;;;;11.79;100.00;99550.31;5280711;28;20380;-74
2024/03/30 02:04:42;;;;;;;2.72;1.10;;;;;;;11.75;100.00;99533.78;5270084;28;20016;-74
2024/03/30 02:07:13;;;;;;;3.95;1.00;;;;;;;11.73;100.00;99538.53;5277583;28;20088;-74
2024/03/30 02:09:45;;;;;;;4.13;1.10;;;;;;;11.70;100.00;99530.91;5272794;27;20032;-74
2024/03/30 02:12:17;;;;;;;1.98;1.27;;;;;;;11.57;100.00;99541.59;5278105;28;20069;-74
2024/03/30 02:14:48;;;;;;;3.03;1.33;;;;;;;11.62;100.00;99539.97;5274148;28;20392;-74
2024/03/30 02:17:19;;;;;;;2.30;1.05;;;;;;;11.55;100.00;99536.44;5275793;28;20023;-74
2024/03/30 02:19:57;;;;;;;2.50;1.08;;;;;;;11.59;100.00;99537.66;5278626;28;20032;-74
2024/03/30 02:22:28;;;;;;;1.27;1.10;;;;;;;11.59;100.00;99532.31;5274860;28;20015;-74
2024/03/30 02:25:07;;;;;;;3.60;1.40;;;;;;;11.57;100.00;99534.38;5271833;28;20028;-74
2024/03/30 02:27:58;;;;;;;2.42;1.20;;;;;;;11.57;100.00;99528.19;5278220;28;20020;-74
2024/03/30 02:30:33;;;;;;;;;;;;;;;11.56;100.00;99521.97;5275846;28;20023;-74
2024/03/30 02:33:04;;;;;;;1.85;1.05;;;;;;;11.56;100.00;99521.16;5278022;28;19908;-74
2024/03/30 02:35:50;;;;;;;1.67;0.82;;;;;;;11.50;100.00;99517.44;5269203;28;20020;-74
2024/03/30 02:38:23;;;;;;;1.95;1.33;;;;;;;11.53;100.00;99514.31;5274128;28;20050;-74
2024/03/30 02:40:55;;;;;;;2.72;1.35;;;;;;;11.48;100.00;99500.69;5273163;28;20406;-74
2024/03/30 02:43:26;;;;;;;5.03;1.60;;;;;;;11.46;100.00;99496.56;5274160;28;20030;-74
2024/03/30 02:45:57;;;;;;;3.70;1.50;;;;;;;11.41;100.00;99499.84;5276798;28;20020;-74
2024/03/30 02:48:27;;;;;;;3.35;1.40;;;;;;;11.43;100.00;99519.28;5274660;28;20037;-74
2024/03/30 02:50:58;;;;;;;4.75;2.10;;;;;;;11.43;100.00;99524.63;5275780;28;20012;-74
2024/03/30 02:53:28;;;;;;;3.28;1.40;;;;;;;11.43;100.00;99511.22;5273138;28;20384;-74
2024/03/30 02:56:00;;;;;;;6.20;1.30;;;;;;;11.46;100.00;99500.06;5275621;28;20019;-74
2024/03/30 02:58:30;;;;;;;2.33;1.50;;;;;;;11.46;100.00;99489.34;5274461;28;20024;-74
2024/03/30 03:01:01;;;;;;;2.42;1.58;;;;;;;11.45;100.00;99500.28;5273688;28;20031;-74
2024/03/30 03:03:32;;;;;;;3.10;1.85;;;;;;;11.45;100.00;99497.59;5273235;28;20497;-74
2024/03/30 03:06:02;;;;;;;2.55;1.63;;;;;;;11.43;100.00;99513.91;5276300;28;20027;-74
2024/03/30 03:08:33;;;;;;;2.95;1.88;;;;;;;11.46;100.00;99507.31;5274661;28;20027;-74
2024/03/30 03:11:04;;;;;;;4.30;2.05;;;;;;;11.46;100.00;99507.31;5277169;28;20011;-74
2024/03/30 03:13:34;;;;;;;3.78;1.70;;;;;;;11.48;100.00;99500.69;5272933;28;20034;-74
2024/03/30 03:16:05;;;;;;;3.17;2.03;;;;;;;11.50;100.00;99493.28;5275821;28;20041;-74
2024/03/30 03:18:36;;;;;;;3.13;1.77;;;;;;;11.52;100.00;99491.19;5274458;28;20111;-74
2024/03/30 03:21:06;;;;;;;4.40;2.17;;;;;;;11.52;100.00;99485.81;5274569;28;20031;-74
2024/03/30 03:23:38;;;;;;;4.00;1.98;;;;;;;11.51;100.00;99469.91;5272001;28;20027;-74
2024/03/30 03:26:08;;;;;;;4.75;1.98;;;;;;;11.49;100.00;99463.91;5272347;28;20056;-74
2024/03/30 03:28:39;;;;;;;3.28;2.00;;;;;;;11.46;100.00;99464.34;5274234;28;20022;-74
2024/03/30 03:31:09;;;;;;;3.63;2.20;;;;;;;11.43;100.00;99462.88;5276081;28;20088;-74
2024/03/30 03:33:40;;;;;;;3.03;1.70;;;;;;;11.40;100.00;99476.72;5272138;28;20072;-74
2024/03/30 03:36:11;;;;;;;2.58;1.85;;;;;;;11.40;100.00;99469.50;5274929;28;20020;-74
2024/03/30 03:38:41;;;;;;;3.95;1.67;;;;;;;11.32;100.00;99461.63;5266902;28;20043;-74
2024/03/30 03:41:12;;;;;;;2.42;1.65;;;;;;;11.35;100.00;99461.22;5279713;28;20067;-74
2024/03/30 03:43:43;;;;;;;5.82;2.10;;;;;;;11.37;100.00;99459.16;5270946;28;20030;-74
2024/03/30 03:46:13;;;;;;;4.07;2.00;;;;;;;11.37;100.00;99455.66;5275167;28;20027;-74
2024/03/30 03:48:44;;;;;;;3.95;1.92;;;;;;;11.39;100.00;99445.53;5271922;28;20084;-74
2024/03/30 03:51:15;;;;;;;2.67;1.83;;;;;;;11.35;100.00;99439.75;5275968;28;20020;-74
2024/03/30 03:53:46;;;;;;;3.00;2.03;;;;;;;11.37;100.00;99447.59;5274208;28;20078;-74
2024/03/30 03:56:16;;;;;;;2.83;2.28;;;;;;;11.38;100.00;99435.81;5271900;28;20020;-74
2024/03/30 03:58:47;;;;;;;2.95;2.25;;;;;;;11.40;100.00;99417.66;5272655;28;20023;-74
2024/03/30 04:01:18;;;;;;;5.85;2.03;;;;;;;11.40;100.00;99417.66;5273601;28;20028;-74
2024/03/30 04:03:49;;;;;;;4.38;2.35;;;;;;;11.37;100.00;99431.47;5271874;28;20020;-74
2024/03/30 04:06:19;;;;;;;2.58;2.08;;;;;;;11.34;100.00;99426.50;5277341;28;20503;-74
2024/03/30 04:08:50;;;;;;;4.40;2.50;;;;;;;11.33;100.00;99427.56;5271082;28;20023;-74
2024/03/30 04:11:21;;;;;;;8.02;2.20;;;;;;;11.37;100.00;99431.47;5274406;28;20564;-74
2024/03/30 04:13:51;;;;;;;2.92;2.10;;;;;;;11.39;100.00;99429.41;5271605;28;20032;-74
2024/03/30 04:16:22;;;;;;;3.63;1.70;;;;;;;11.40;100.00;99428.41;5272607;28;20020;-74
2024/03/30 04:18:53;;;;;;;2.50;1.70;;;;;;;11.37;100.00;99418.88;5273957;28;20027;-74
2024/03/30 04:21:23;;;;;;;2.75;1.88;;;;;;;11.40;100.00;99418.47;5269641;28;20050;-74
2024/03/30 04:23:54;;;;;;;2.03;1.60;;;;;;;11.42;100.00;99420.94;5270958;28;20031;-74
2024/03/30 04:26:26;;;;;;;6.97;2.20;;;;;;;11.42;100.00;99410.22;5270801;28;20023;-74
2024/03/30 04:28:56;;;;;;;3.72;1.92;;;;;;;11.35;100.00;99412.91;5263355;28;20026;-74
2024/03/30 04:31:27;;;;;;;2.88;1.70;;;;;;;11.34;100.00;99407.72;5274341;28;20473;-74
2024/03/30 04:33:57;;;;;;;5.80;2.10;;;;;;;11.37;100.00;99415.38;5272790;28;20024;-74
2024/03/30 04:36:28;;;;;;;2.50;1.80;;;;;;;11.37;100.00;99393.91;5266469;28;20030;-73
2024/03/30 04:38:58;;;;;;;3.47;1.60;;;;;;;11.38;100.00;99411.66;5272916;28;20158;-74
2024/03/30 04:41:29;;;;;;;2.22;1.70;;;;;;;11.36;100.00;99413.72;5275930;27;20390;-74
2024/03/30 04:43:59;;;;;;;2.78;1.85;;;;;;;11.36;100.00;99422.59;5271645;28;20077;-74
2024/03/30 04:46:30;;;;;;;2.75;1.67;;;;;;;11.35;100.00;99402.16;5273368;28;20535;-74
2024/03/30 04:49:00;;;;;;;2.25;1.58;;;;;;;11.36;100.00;99386.88;5270079;28;20431;-73
2024/03/30 04:51:30;;;;;;;5.05;1.35;;;;;;;11.30;100.00;99385.84;5272409;28;20107;-74
2024/03/30 04:54:01;;;;;;;2.00;1.48;;;;;;;11.30;100.00;99401.13;5274940;28;20057;-74
2024/03/30 04:56:33;;;;;;;1.73;1.20;;;;;;;11.33;100.00;99408.75;5275853;28;20028;-74
2024/03/30 04:59:03;;;;;;;1.83;1.45;;;;;;;11.33;100.00;99396.16;5276432;28;20074;-74
2024/03/30 05:01:34;;;;;;;2.45;1.40;;;;;;;11.34;100.00;99370.94;5273570;28;20030;-74
2024/03/30 05:04:04;;;;;;;3.17;1.73;;;;;;;11.31;100.00;99360.66;5272383;28;20035;-74
2024/03/30 05:06:35;;;;;;;1.75;1.40;;;;;;;11.31;100.00;99371.38;5277333;28;20031;-74
2024/03/30 05:09:05;;;;;;;2.20;1.60;;;;;;;11.30;100.00;99385.84;5276403;28;20015;-73
2024/03/30 05:11:36;;;;;;;5.40;1.50;;;;;;;11.23;100.00;99390.38;5271755;28;20020;-74
2024/03/30 05:14:06;;;;;;;2.25;1.63;;;;;;;11.22;100.00;99388.72;5280178;28;20015;-74
2024/03/30 05:16:36;;;;;;;2.58;1.63;;;;;;;11.20;100.00;99365.81;5274586;28;20035;-73
2024/03/30 05:20:43;;;;;;;2.22;1.80;;;;;;;11.19;100.00;99362.28;5281085;28;20461;-73
2024/03/30 05:21:57;;;;;;;2.72;1.90;;;;;;;11.20;100.00;99363.97;5273677;28;20024;-74
2024/03/30 05:24:28;;;;;;;3.17;2.03;;;;;;;11.23;100.00;99363.53;5271735;28;20080;-74
2024/03/30 05:26:59;;;;;;;4.43;2.25;;;;;;;11.26;100.00;99371.19;5279593;28;20436;-74
2024/03/30 05:29:30;;;;;;;2.35;1.73;;;;;;;11.29;100.00;99372.59;5276899;28;20024;-74
2024/03/30 05:32:02;;;;;;;3.22;2.22;;;;;;;11.21;100.00;99375.53;5276036;28;20583;-74
2024/03/30 05:34:32;;;;;;;5.53;2.50;;;;;;;11.17;100.00;99356.31;5272193;28;20020;-74
2024/03/30 05:37:04;;;;;;;5.47;3.40;;;;;;;11.23;100.00;99349.28;5280326;28;20031;-74
2024/03/30 05:39:35;;;;;;;4.70;2.90;;;;;;;11.23;100.00;99357.34;5273032;28;20623;-74
2024/03/30 05:42:05;;;;;;;3.72;2.92;;;;;;;11.31;100.00;99370.56;5276398;28;20019;-74
2024/03/30 05:44:36;;;;;;;3.47;2.80;;;;;;;11.28;100.00;99369.09;5275549;28;20023;-74
2024/03/30 05:47:07;;;;;;;5.65;3.83;;;;;;;11.28;100.00;99379.03;5277031;28;20075;-73
2024/03/30 05:49:38;;;;;;;5.43;2.67;;;;;;;11.29;100.00;99372.59;5264503;28;20116;-74
2024/03/30 05:52:09;;;;;;;4.38;3.05;;;;;;;11.31;100.00;99363.34;5278091;28;20020;-74
2024/03/30 05:54:40;;;;;;;10.63;3.40;;;;;;;11.31;100.00;99378.63;5265202;28;20028;-74
2024/03/30 05:57:11;;;;;;;4.13;3.00;;;;;;;11.28;100.00;99393.25;5268393;28;20045;-74
2024/03/30 05:59:41;;;;;;;5.45;3.25;;;;;;;11.35;100.00;99382.53;5270708;28;20377;-73
2024/03/30 06:02:12;;;;;;;4.15;2.70;;;;;;;11.35;100.00;99379.84;5269175;28;20024;-74
2024/03/30 06:04:42;;;;;;;4.82;2.85;;;;;;;11.37;100.00;99377.78;5267184;28;20015;-74
2024/03/30 06:07:13;;;;;;;4.70;3.00;;;;;;;11.35;100.00;99372.63;5279952;28;20400;-74
2024/03/30 06:09:43;;;;;;;5.78;3.55;;;;;;;11.36;100.00;99373.44;5273355;28;20024;-74
2024/03/30 06:12:14;;;;;;;7.22;3.47;;;;;;;11.38;100.00;99376.75;5278903;28;20038;-74
2024/03/30 06:14:46;;;;;;;4.07;2.95;;;;;;;11.38;100.00;99366.81;5271307;27;20028;-74
2024/03/30 06:17:16;;;;;;;4.18;3.30;;;;;;;11.40;100.00;99359.41;5278093;28;20031;-74
2024/03/30 06:19:47;;;;;;;6.15;3.22;;;;;;;11.43;100.00;99363.53;5276050;28;20482;-74
2024/03/30 06:22:17;;;;;;;3.85;2.85;;;;;;;11.36;100.00;99365.41;5277186;28;20028;-74
2024/03/30 06:24:48;;;;;;;2.95;2.35;;;;;;;11.43;100.00;99374.25;5265595;28;20020;-74
2024/03/30 06:27:18;;;;;;;4.13;2.30;;;;;;;11.39;100.00;99364.97;5276590;28;20027;-74
2024/03/30 06:29:49;;;;;;;3.65;2.70;;;;;;;11.27;100.00;99372.00;5274445;28;20405;-74
2024/03/30 06:32:19;;;;;;;4.68;2.70;;;;;;;11.18;100.00;99381.28;5278422;28;20035;-74
2024/03/30 06:34:50;;;;;;;4.40;2.67;;;;;;;11.15;100.00;99382.53;5271748;28;20022;-74
2024/03/30 06:37:21;;;;;;;6.88;3.10;;;;;;;11.14;100.00;99379.03;5277655;28;20393;-74
2024/03/30 06:45:29;;;;;;;6.65;3.72;;;;;;;11.19;100.00;99353.41;5276300;28;20020;-74
2024/03/30 06:48:00;;;;;;;6.45;3.72;;;;;;;11.25;100.00;99355.28;5279371;28;20042;-74
2024/03/30 06:50:30;;;;;;;9.52;5.40;;;;;;;11.31;100.00;99354.44;5275168;28;20019;-74
2024/03/30 06:53:01;;;;;;;6.93;4.60;;;;;;;11.37;100.00;99359.00;5279267;28;20023;-74
2024/03/30 06:55:31;;;;;;;9.35;5.15;;;;;;;11.38;100.00;99360.63;5272019;28;20374;-74
2024/03/30 06:58:02;;;;;;;16.20;5.35;;;;;;;11.39;100.00;99356.91;5274773;28;20030;-74
2024/03/30 07:00:33;;;;;;;7.85;5.22;;;;;;;11.37;100.00;99367.88;5268346;28;20032;-74
2024/03/30 07:03:03;;;;;;;9.85;6.03;;;;;;;11.39;100.00;99359.59;5278009;28;20640;-74
2024/03/30 07:05:34;;;;;;;9.43;5.75;;;;;;;11.43;100.00;99360.84;5275522;28;20023;-74
2024/03/30 07:08:05;;;;;;;9.38;5.45;;;;;;;11.47;100.00;99362.06;5275877;28;20027;-73
2024/03/30 07:10:36;;;;;;;11.20;5.40;;;;;;;11.50;100.00;99356.31;5276189;28;20465;-74
2024/03/30 07:13:06;;;;;;;8.32;5.63;;;;;;;11.49;100.00;99356.50;5276982;28;20023;-74
2024/03/30 07:15:36;;;;;;;10.75;6.45;;;;;;;11.44;100.00;99353.59;5270725;28;20020;-74
2024/03/30 07:18:07;;;;;;;12.45;7.03;;;;;;;11.42;100.00;99353.81;5276684;28;20024;-74
2024/03/30 07:20:37;;;;;;;9.90;6.85;;;;;;;11.38;100.00;99357.94;5275135;28;20488;-74
2024/03/30 07:23:08;;;;;;;10.43;6.55;;;;;;;11.39;100.00;99359.59;5251024;28;20027;-74
2024/03/30 07:25:39;;;;;;;11.65;7.13;;;;;;;11.39;100.00;99362.28;5262356;28;20088;-73
2024/03/30 07:28:10;;;;;;;10.40;6.63;;;;;;;11.39;100.00;99360.41;5279807;28;20036;-74
2024/03/30 07:30:43;;;;;;;13.73;8.27;;;;;;;11.44;100.00;99358.97;5273965;28;20027;-74
2024/03/30 07:33:13;;;;;;;15.48;8.38;;;;;;;11.48;100.00;99366.41;5266805;28;20031;-74
2024/03/30 07:35:53;;;;;;;12.98;7.95;;;;;;;11.52;100.00;99364.97;5268653;28;20050;-74
2024/03/30 07:38:28;;;;;;;13.55;8.23;;;;;;;11.62;100.00;99368.03;5278499;28;20122;-74
2024/03/30 07:40:59;;;;;;;15.80;8.25;;;;;;;11.62;100.00;99365.38;5270018;28;20034;-73
2024/03/30 07:43:30;;;;;;;13.90;8.60;;;;;;;11.53;100.00;99358.56;5273797;28;20031;-74
2024/03/30 07:46:01;;;;;;;15.02;8.27;;;;;;;11.55;100.00;99363.75;5276075;28;20103;-74
2024/03/30 07:48:32;;;;;;;13.05;8.90;;;;;;;11.49;100.00;99367.22;5272112;28;20024;-74
2024/03/30 07:51:02;;;;;;;14.48;9.40;;;;;;;11.45;100.00;99358.78;5276002;28;20423;-74
2024/03/30 07:53:33;;;;;;;14.70;8.95;;;;;;;11.46;100.00;99346.19;5271674;28;20027;-74
2024/03/30 07:56:03;;;;;;;15.25;9.35;;;;;;;11.39;100.00;99330.06;5272510;28;20024;-74
2024/03/30 07:58:34;;;;;;;15.70;9.45;;;;;;;11.36;100.00;99317.06;5275611;28;20039;-74
2024/03/30 08:01:06;;;;;;;12.88;8.15;;;;;;;11.34;100.00;99319.13;5276401;28;20024;-74
2024/03/30 08:03:36;;;;;;;13.38;7.63;;;;;;;11.34;100.00;99313.75;5272306;28;20035;-74
2024/03/30 08:06:07;;;;;;;11.55;6.72;;;;;;;11.35;100.00;99310.88;5273379;28;20024;-74
2024/03/30 08:08:37;;;;;;;18.63;8.27;;;;;;;11.41;100.00;99314.59;5271080;28;20644;-74
2024/03/30 08:11:08;;;;;;;12.32;7.25;;;;;;;11.44;100.00;99316.84;5271565;28;20039;-74
2024/03/30 08:13:38;;;;;;;11.07;7.57;;;;;;;11.44;100.00;99319.50;5267132;28;20020;-74
2024/03/30 08:16:09;;;;;;;11.50;6.85;;;;;;;11.44;100.00;99326.75;5272940;28;20040;-74
2024/03/30 08:18:40;;;;;;;12.95;8.60;;;;;;;11.38;100.00;99334.59;5276635;28;20047;-74
2024/03/30 08:21:11;;;;;;;13.40;8.18;;;;;;;11.39;100.00;99332.75;5273119;28;20028;-74
2024/03/30 08:23:42;;;;;;;11.70;7.60;;;;;;;11.45;100.00;99342.69;5264384;28;20093;-74
2024/03/30 08:26:12;;;;;;;12.48;8.02;;;;;;;11.47;100.00;99334.41;5257507;28;20040;-74
2024/03/30 08:28:46;;;;;;;13.45;7.93;;;;;;;11.49;100.00;99343.88;5262995;28;20089;-73
2024/03/30 08:31:18;;;;;;;14.57;8.38;;;;;;;11.50;100.00;99342.06;5267264;28;20028;-74
2024/03/30 08:33:50;;;;;;;15.35;9.60;;;;;;;11.49;100.00;99343.88;5273951;28;20043;-74
2024/03/30 08:36:21;;;;;;;13.30;9.07;;;;;;;11.50;100.00;99352.78;5276285;28;20407;-74
2024/03/30 08:38:51;;;;;;;15.57;9.05;;;;;;;11.52;100.00;99346.16;5273769;28;20020;-74
2024/03/30 08:41:22;;;;;;;16.05;9.70;;;;;;;11.57;100.00;99358.97;5279664;28;20618;-74
2024/03/30 08:43:52;;;;;;;16.35;9.68;;;;;;;11.58;100.00;99358.75;5272058;27;20089;-74
2024/03/30 08:46:23;;;;;;;16.50;9.25;;;;;;;11.62;100.00;99353.78;5273228;28;20020;-73
2024/03/30 08:49:02;;;;;;;15.30;9.52;;;;;;;11.65;100.00;99340.78;5274008;28;20028;-74
2024/03/30 08:51:34;;;;;;;20.73;10.15;;;;;;;11.67;100.00;99348.63;5275832;28;20510;-74
2024/03/30 08:54:05;;;;;;;18.42;10.73;;;;;;;11.67;100.00;99337.88;5276222;28;20030;-74
2024/03/30 08:56:36;;;;;;;19.15;10.57;;;;;;;11.66;100.00;99342.44;5273838;28;20106;-74
2024/03/30 08:59:06;;;;;;;15.45;9.45;;;;;;;11.70;100.00;99340.16;5273424;28;20111;-74
2024/03/30 09:01:37;;;;;;;19.23;11.40;;;;;;;11.77;100.00;99337.44;5276748;28;20020;-74
2024/03/30 09:04:08;;;;;;;17.95;10.02;;;;;;;11.83;100.00;99340.13;5276652;28;20035;-74
2024/03/30 09:06:38;;;;;;;18.65;11.00;;;;;;;11.92;100.00;99332.69;5273516;28;20023;-74
2024/03/30 09:09:09;;;;;;;21.70;11.07;;;;;;;12.00;100.00;99343.19;5273922;28;20041;-74
2024/03/30 09:11:40;;;;;;;18.90;11.80;;;;;;;11.99;100.00;99336.16;5271591;28;20028;-74
2024/03/30 09:14:10;;;;;;;19.63;11.50;;;;;;;11.95;100.00;99339.47;5278115;28;20084;-74
2024/03/30 09:16:41;;;;;;;15.75;10.00;;;;;;;11.96;100.00;99325.84;5268513;28;20024;-74
2024/03/30 09:19:13;;;;;;;22.27;10.63;;;;;;;11.94;100.00;99327.91;5269572;28;20111;-74
2024/03/30 09:21:44;;;;;;;17.33;11.00;;;;;;;11.97;100.00;99327.50;5269268;28;20401;-74
2024/03/30 09:24:15;;;;;;;21.83;11.07;;;;;;;12.03;100.00;99334.69;5269242;28;20035;-74
2024/03/30 09:26:46;;;;;;;20.25;11.07;;;;;;;12.02;100.00;99335.75;5268419;28;20500;-74
2024/03/30 09:29:16;;;;;;;18.65;11.30;;;;;;;12.08;100.00;99331.38;5275011;28;20047;-74
2024/03/30 09:31:48;;;;;;;16.60;10.07;;;;;;;12.10;100.00;99348.94;5264850;28;20093;-74
2024/03/30 09:34:19;;;;;;;12.55;7.60;;;;;;;12.10;100.00;99345.44;5264775;28;20016;-74
2024/03/30 09:36:49;;;;;;;14.02;7.65;;;;;;;12.06;100.00;99357.66;5276998;28;20028;-74
2024/03/30 09:39:20;;;;;;;11.18;7.20;;;;;;;12.00;100.00;99355.78;5277579;28;20030;-74
2024/03/30 09:41:53;;;;;;;13.25;6.82;;;;;;;12.00;100.00;99353.94;5278549;28;20038;-74
2024/03/30 09:44:23;;;;;;;11.35;7.40;;;;;;;11.98;100.00;99350.63;5268392;28;20724;-74
2024/03/30 09:46:55;;;;;;;14.23;7.93;;;;;;;12.02;100.00;99356.41;5271505;28;20028;-74
2024/03/30 09:49:28;;;;;;;10.68;6.88;;;;;;;12.09;100.00;99359.91;5273830;28;20042;-74
2024/03/30 09:52:02;;;;;;;12.65;7.35;;;;;;;12.24;100.00;99367.72;5272463;28;20076;-74
2024/03/30 09:54:34;;;;;;;12.05;7.80;;;;;;;12.30;100.00;99354.25;5275768;28;20587;-74
2024/03/30 09:57:04;;;;;;;11.38;7.50;;;;;;;12.26;100.00;99362.97;5272662;28;20102;-74
2024/03/30 09:59:35;;;;;;;15.40;8.15;;;;;;;12.18;100.00;99364.84;5274255;28;20114;-74
2024/03/30 10:02:05;;;;;;;12.52;7.78;;;;;;;12.12;100.00;99386.38;5268921;28;20051;-74
2024/03/30 10:04:37;;;;;;;12.77;8.32;;;;;;;12.05;100.00;99383.72;5243905;28;20062;-74
2024/03/30 10:07:12;;;;;;;17.92;8.50;;;;;;;12.06;100.00;99393.41;5267501;28;20100;-74
2024/03/30 10:09:44;;;;;;;11.27;7.75;;;;;;;12.03;100.00;99384.94;5263720;28;20028;-74
2024/03/30 10:12:30;;;;;;;13.55;8.43;;;;;;;12.02;100.00;99381.44;5272495;28;20040;-74
2024/03/30 10:15:05;;;;;;;15.27;8.77;;;;;;;12.01;100.00;99389.72;5274722;28;20028;-74
2024/03/30 10:17:36;;;;;;;;;;;;;;;11.97;100.00;99385.78;5271069;28;20035;-74
2024/03/30 10:20:07;;;;;;;14.65;8.30;;;;;;;11.87;100.00;99396.97;5277623;28;19915;-74
2024/03/30 10:22:39;;;;;;;18.20;9.65;;;;;;;11.84;100.00;99408.94;5265227;28;20512;-74
2024/03/30 10:25:10;;;;;;;17.65;10.18;;;;;;;11.82;100.00;99420.97;5269781;28;20461;-74
2024/03/30 10:27:40;;;;;;;19.08;9.93;;;;;;;11.81;100.00;99441.59;5274954;28;20028;-74
2024/03/30 10:30:11;;;;;;;17.95;9.75;;;;;;;11.80;100.00;99444.50;5271926;27;20024;-74
2024/03/30 10:32:44;;;;;;;16.08;10.27;;;;;;;11.82;100.00;99429.84;5274826;28;20012;-74
2024/03/30 10:35:19;;;;;;;19.25;9.52;;;;;;;11.88;100.00;99422.81;5261836;28;20020;-74
2024/03/30 10:37:52;;;;;;;19.17;11.23;;;;;;;11.95;100.00;99434.38;5272999;27;20028;-74
2024/03/30 10:40:24;;;;;;;16.30;9.65;;;;;;;12.00;100.00;99436.41;5273886;28;20092;-74
2024/03/30 10:42:57;;;;;;;32.67;21.40;;;;;;;12.06;100.00;99433.75;5265697;28;20062;-74
2024/03/30 10:45:28;;;;;;;31.80;18.42;;;;;;;12.12;100.00;99445.50;5274541;28;20381;-74
2024/03/30 10:47:58;;;;;;;46.35;24.80;;;;;;;12.22;100.00;99450.44;5270690;28;20512;-74
2024/03/30 10:50:29;;;;;;;24.08;13.45;;;;;;;12.34;100.00;99449.56;5272379;28;20032;-74
2024/03/30 10:53:04;;;;;;;25.30;18.02;;;;;;;12.49;100.00;99461.94;5271864;28;20592;-75
2024/03/30 10:55:37;;;;;;;14.95;9.35;;;;;;;12.59;100.00;99465.84;5268197;28;20423;-74
2024/03/30 10:58:08;;;;;;;14.00;8.73;;;;;;;12.61;100.00;99479.91;5277916;28;20016;-74
2024/03/30 11:00:41;;;;;;;15.10;10.30;;;;;;;12.69;100.00;99479.66;5267937;28;20043;-74
2024/03/30 11:03:13;;;;;;;17.27;11.07;;;;;;;12.74;100.00;99480.88;5266422;28;20153;-74
2024/03/30 11:05:47;;;;;;;28.40;22.25;;;;;;;12.80;100.00;99488.09;5266871;28;20036;-74
2024/03/30 11:08:19;;;;;;;12.65;8.77;;;;;;;12.82;100.00;99486.88;5263117;28;20024;-74
2024/03/30 11:10:50;;;;;;;12.75;8.13;;;;;;;12.85;100.00;99496.34;5271794;28;20020;-74
2024/03/30 11:13:21;;;;;;;15.43;8.65;;;;;;;12.89;100.00;99509.19;5257209;28;20035;-74
2024/03/30 11:15:53;;;;;;;12.27;8.10;;;;;;;13.05;100.00;99512.41;5244586;28;20119;-74
2024/03/30 11:18:35;;;;;;;13.20;8.27;;;;;;;13.09;100.00;99510.97;5265562;28;20103;-74
2024/03/30 11:21:26;;;;;;;14.15;10.25;;;;;;;13.16;100.00;99517.16;5267683;28;20051;-74
2024/03/30 11:24:03;;;;;;;11.18;6.95;;;;;;;13.25;100.00;99523.13;5259728;28;20075;-74
2024/03/30 11:26:37;;;;;;;10.30;6.93;;;;;;;13.27;100.00;99531.84;5264545;28;20114;-74
2024/03/30 11:29:13;;;;;;;17.25;8.70;;;;;;;13.20;100.00;99538.06;5274122;28;20107;-74
2024/03/30 11:31:49;;;;;;;16.90;9.63;;;;;;;13.12;100.00;99545.53;5272869;28;20620;-75
2024/03/30 11:34:34;;;;;;;16.00;9.50;;;;;;;13.04;100.00;99549.28;5270770;28;20027;-75
2024/03/30 11:37:20;;;;;;;14.47;9.60;;;;;;;13.00;100.00;99566.91;5277286;28;20031;-75
2024/03/30 11:39:59;;;;;;;15.88;10.25;;;;;;;12.80;100.00;99558.94;5273480;28;20317;-74
2024/03/30 11:42:49;;;;;;;18.40;10.45;;;;;;;12.73;100.00;99562.66;5272249;28;20028;-75
2024/03/30 11:45:24;;;;;;;23.23;16.27;;;;;;;12.82;100.00;99567.59;5266043;28;20070;-75
2024/03/30 11:47:56;;;;;;;20.25;13.68;;;;;;;12.84;100.00;99570.06;5268611;28;20067;-74